Moncks Corner, SC (29461)

10:31 AM EST on January 30, 2015 (GMT -0500)
Windwood | Change Station
CLOSE
Current Station
Personal Weather Station
Location: Moncks Corner, SC
Elevation: 66 ft
Nearby Weather Stations

Elev 66 ft 33.11 °N, 80.08 °W | Updated 34 seconds ago

Clear
Clear
54.7 °F
Feels Like 54.7 °F
N
5.8
Wind Variable Wind from WNW

Today
High -- | Low -- °F
--% Chance of Precip.
Yesterday
High -- | Low -- °F
Precip. -- in
7:17 AM 5:50 PM
Waxing Gibbous, 83% visible
Pressure 30.13 in
Visibility 10.0 miles
Clouds Clear
Dew Point Not available.
Humidity Not available.
Rainfall 0.00 in
Snow Depth Not available.
UV 3 out of 12
Pollen 4.30 out of 12
Air Quality Not available.
Flu Activity Not available.
METAR KMKS 301535Z AUTO 34007G15KT 10SM CLR 12/01 A3013 RMK AO2

More Conditions Fewer Conditions

Pressure 30.13 in
Visibility 10.0 miles
Clouds Clear
Dew Point Not available.
Humidity Not available.
Rainfall 0.00 in
Snow Depth Not available.
UV 3 out of 12
Pollen 4.30 out of 12
Air Quality Not available.
Flu Activity Not available.
METAR KMKS 301535Z AUTO 34007G15KT 10SM CLR 12/01 A3013 RMK AO2

More Conditions Fewer Conditions

10-Day Weather Forecast

Almanac

Astronomy

Jan. 30, 2015 Rise Set
Actual Time
Civil Twilight
Nautical Twilight
Astronomical Twilight
Moon
Length of Visible Light
Length of Day
Tomorrow will be .
, % of the Moon is Illuminated

Today's Extremes

State Highs State Lows

Community

WunderPhotos

Upload Photos

1,791,791 photos uploaded!

WunderBlogs® & News

Nearby

Air Quality

  Air Quality AQ Index Pollutant
Not available.

Snow Depth

Station Depth Elevation

Earthquake Activity

City Distance Mag. Time & Date
Minimum magnitude displayed is 2.5.

Coastal Water Temperatures

Place Temperature

Nearby Weather Stations